createdAt,value
2023-03-29T00:00:16.852Z,51.08
2023-03-29T00:02:48.806Z,50.73
2023-03-29T00:05:25.523Z,50.90
2023-03-29T00:07:54.406Z,51.04
2023-03-29T00:10:24.208Z,51.05
2023-03-29T00:12:52.734Z,51.27
2023-03-29T06:24:16.557Z,87.80
2023-03-29T06:26:45.205Z,86.62
2023-03-29T06:29:12.752Z,84.90
2023-03-29T06:31:40.984Z,81.83
2023-03-29T06:34:08.434Z,81.26
2023-03-29T06:36:35.813Z,80.75
2023-03-29T06:39:04.095Z,79.76
2023-03-29T06:41:31.680Z,79.79
2023-03-29T06:43:59.110Z,78.86
2023-03-29T06:46:27.211Z,77.51
2023-03-29T06:48:54.571Z,75.69
2023-03-29T06:51:23.554Z,75.40
2023-03-29T06:53:50.976Z,75.03
2023-03-29T06:56:18.365Z,74.83
2023-03-29T06:58:47.076Z,74.19
2023-03-29T07:01:14.510Z,74.36
2023-03-29T07:03:44.776Z,74.00
2023-03-29T07:06:15.488Z,73.77
2023-03-29T07:08:47.525Z,74.49
2023-03-29T07:11:17.944Z,74.26
2023-03-29T07:13:46.294Z,74.27
2023-03-29T07:16:14.293Z,73.95
2023-03-29T07:18:44.343Z,73.86
2023-03-29T07:21:13.363Z,73.05
2023-03-29T07:23:41.103Z,73.68
2023-03-29T07:26:09.946Z,73.43
2023-03-29T07:28:39.549Z,74.15
2023-03-29T07:31:11.726Z,73.03
2023-03-29T07:33:39.952Z,72.60
2023-03-29T07:36:08.630Z,70.67
2023-03-29T07:38:37.005Z,70.55
2023-03-29T07:41:08.088Z,69.31
2023-03-29T07:43:35.852Z,69.02
2023-03-29T07:46:07.214Z,68.14
2023-03-29T07:48:37.212Z,68.32
2023-03-29T07:51:06.422Z,68.31
2023-03-29T07:53:33.832Z,69.43
2023-03-29T07:56:01.824Z,70.40
2023-03-29T07:58:29.718Z,70.59
2023-03-29T08:01:00.666Z,69.69
2023-03-29T08:03:28.979Z,69.41
2023-03-29T08:05:57.002Z,68.97
2023-03-29T08:08:24.513Z,67.42
2023-03-29T08:10:52.930Z,66.27
2023-03-29T08:13:20.514Z,66.03
2023-03-29T08:15:48.941Z,66.81
2023-03-29T08:18:16.431Z,66.32
2023-03-29T08:20:44.377Z,67.37
2023-03-29T08:23:11.897Z,67.89
2023-03-29T08:25:39.304Z,67.00
2023-03-29T08:28:06.926Z,66.10
2023-03-29T08:30:34.655Z,66.35
2023-03-29T08:33:02.685Z,65.82
2023-03-29T08:35:30.093Z,66.71
2023-03-29T08:37:57.607Z,66.99
2023-03-29T08:40:30.092Z,66.86
2023-03-29T08:42:59.920Z,66.48
2023-03-29T08:45:57.336Z,66.40
2023-03-29T08:48:44.188Z,66.97
2023-03-29T08:51:36.773Z,67.01
2023-03-29T08:54:25.119Z,65.51
2023-03-29T08:57:00.357Z,65.33
2023-03-29T08:59:34.652Z,64.27
2023-03-29T09:02:05.824Z,64.60
2023-03-29T09:04:39.083Z,64.10
2023-03-29T09:07:11.242Z,64.29
2023-03-29T09:09:38.812Z,64.60
2023-03-29T09:12:48.937Z,64.61
2023-03-29T09:15:31.129Z,63.97
2023-03-29T09:18:19.374Z,63.25
2023-03-29T09:21:33.465Z,62.93
2023-03-29T09:24:40.888Z,62.18
2023-03-29T09:27:27.449Z,62.17
2023-03-29T09:30:32.188Z,62.39
2023-03-29T09:33:24.965Z,62.21
2023-03-29T09:36:17.312Z,61.64
2023-03-29T09:38:51.074Z,61.88
2023-03-29T09:41:49.129Z,61.46
2023-03-29T09:44:38.048Z,62.33
2023-03-29T09:48:06.584Z,61.26
2023-03-29T09:50:47.402Z,62.69
2023-03-29T09:53:21.489Z,60.41
2023-03-29T09:55:52.056Z,60.55
2023-03-29T09:58:24.718Z,59.59
2023-03-29T10:00:53.218Z,60.33
2023-03-29T10:03:29.657Z,59.67
2023-03-29T10:06:02.760Z,59.58
2023-03-29T10:08:46.337Z,59.62
2023-03-29T10:11:33.085Z,59.76
2023-03-29T10:14:37.142Z,59.88
2023-03-29T10:17:24.200Z,59.27
2023-03-29T10:20:04.847Z,58.80
2023-03-29T10:22:37.983Z,59.16
2023-03-29T10:25:17.325Z,59.09
2023-03-29T10:27:47.987Z,58.18
2023-03-29T10:30:26.225Z,57.75
2023-03-29T10:33:00.097Z,57.09
2023-03-29T10:35:41.722Z,56.26
2023-03-29T10:38:18.786Z,55.76
2023-03-29T10:40:53.280Z,54.24
2023-03-29T10:43:35.203Z,52.44
2023-03-29T10:46:33.078Z,51.97
2023-03-29T10:49:18.318Z,51.84
2023-03-29T10:51:49.484Z,51.49
2023-03-29T10:54:22.517Z,51.01
2023-03-29T10:56:57.734Z,50.61
2023-03-29T11:00:01.379Z,49.97
2023-03-29T11:03:06.101Z,48.67
2023-03-29T11:06:26.500Z,46.28
2023-03-29T11:09:23.534Z,45.43
2023-03-29T11:12:34.759Z,45.34
2023-03-29T11:16:04.964Z,45.78
2023-03-29T11:19:07.270Z,44.64
2023-03-29T11:22:19.874Z,43.88
2023-03-29T11:25:42.289Z,43.57
2023-03-29T11:28:45.767Z,43.97
2023-03-29T11:31:38.837Z,43.87
2023-03-29T11:35:08.014Z,41.98
2023-03-29T11:38:19.198Z,42.30
2023-03-29T11:41:19.968Z,40.88
2023-03-29T11:44:02.783Z,40.59
2023-03-29T11:47:20.754Z,40.40
2023-03-29T11:50:00.904Z,40.99
2023-03-29T11:52:43.008Z,40.98
2023-03-29T11:55:26.564Z,43.12
2023-03-29T11:58:22.532Z,42.67
2023-03-29T12:01:00.664Z,40.82
2023-03-29T12:04:24.866Z,40.95
2023-03-29T12:07:23.180Z,40.21
2023-03-29T12:10:16.695Z,39.81
2023-03-29T12:13:19.166Z,40.26
2023-03-29T12:15:59.951Z,40.43
2023-03-29T12:18:43.119Z,40.10
2023-03-29T12:21:21.393Z,41.48
2023-03-29T12:23:50.680Z,39.83
2023-03-29T12:26:46.375Z,39.50
2023-03-29T12:30:02.677Z,40.00
2023-03-29T12:33:22.216Z,40.28
2023-03-29T12:36:49.004Z,40.22
2023-03-29T12:39:20.790Z,39.95
2023-03-29T12:41:53.601Z,39.45
2023-03-29T12:44:24.710Z,39.85
2023-03-29T12:46:58.801Z,39.84
2023-03-29T12:49:38.267Z,40.43
2023-03-29T12:52:36.208Z,40.66
2023-03-29T12:55:48.316Z,40.26
2023-03-29T12:58:40.141Z,40.15
2023-03-29T13:01:32.174Z,40.07
2023-03-29T13:04:17.823Z,39.55
2023-03-29T13:07:03.460Z,39.96
2023-03-29T13:09:55.124Z,40.45
2023-03-29T13:12:46.123Z,40.22
2023-03-29T13:15:19.284Z,39.69
2023-03-29T13:18:48.777Z,40.02
2023-03-29T13:22:10.056Z,39.60
2023-03-29T13:25:06.267Z,38.83
2023-03-29T13:28:05.302Z,39.46
2023-03-29T13:31:01.858Z,39.15
2023-03-29T13:34:31.123Z,38.78
2023-03-29T13:37:54.276Z,39.36
2023-03-29T13:40:40.539Z,38.80
2023-03-29T13:43:22.439Z,37.95
2023-03-29T13:45:58.547Z,37.31
2023-03-29T13:48:35.214Z,36.73
2023-03-29T13:51:18.964Z,36.01
2023-03-29T13:55:13.277Z,35.43
2023-03-29T13:57:56.023Z,35.19
2023-03-29T14:00:37.172Z,35.24
2023-03-29T14:03:13.753Z,35.44
2023-03-29T14:05:56.493Z,34.98
2023-03-29T14:08:37.505Z,34.80
2023-03-29T14:11:08.169Z,35.09
2023-03-29T14:13:35.805Z,35.43
2023-03-29T14:16:10.630Z,35.53
2023-03-29T14:18:42.038Z,36.43
2023-03-29T14:21:14.566Z,36.70
2023-03-29T14:23:47.986Z,36.00
2023-03-29T14:26:30.613Z,35.81
2023-03-29T14:29:02.005Z,34.98
2023-03-29T14:31:37.918Z,35.24
2023-03-29T14:34:16.056Z,35.13
2023-03-29T14:36:49.396Z,35.52
2023-03-29T14:39:23.396Z,35.62
2023-03-29T14:41:57.070Z,36.10
2023-03-29T14:44:31.979Z,35.79
2023-03-29T14:47:01.877Z,35.96
2023-03-29T14:49:29.983Z,36.12
2023-03-29T14:51:58.258Z,36.25
2023-03-29T14:54:33.752Z,36.41
2023-03-29T14:57:07.309Z,36.65
2023-03-29T14:59:56.455Z,36.52
2023-03-29T15:02:32.829Z,36.86
2023-03-29T15:05:25.649Z,36.26
2023-03-29T15:07:56.351Z,36.28
2023-03-29T15:10:24.349Z,36.79
2023-03-29T15:12:52.041Z,36.78
2023-03-29T15:15:20.016Z,37.08
2023-03-29T15:17:52.291Z,36.49
2023-03-29T15:20:31.681Z,37.29
2023-03-29T15:23:09.635Z,37.54
2023-03-29T15:25:49.485Z,37.34
2023-03-29T15:28:55.886Z,36.86
2023-03-29T15:31:42.039Z,36.99
2023-03-29T15:34:25.146Z,36.63
2023-03-29T15:36:54.067Z,36.64
2023-03-29T15:39:21.627Z,36.87
2023-03-29T15:41:52.955Z,36.80
2023-03-29T15:44:43.736Z,36.75
2023-03-29T15:47:12.705Z,36.98
2023-03-29T15:49:40.619Z,37.03
2023-03-29T15:52:08.128Z,36.98
2023-03-29T15:54:37.274Z,37.21
2023-03-29T15:57:12.586Z,36.90
2023-03-29T15:59:40.254Z,37.09
2023-03-29T16:02:12.242Z,37.04
2023-03-29T16:04:39.700Z,37.10
2023-03-29T16:07:17.666Z,37.60
2023-03-29T16:09:46.320Z,37.90
2023-03-29T16:12:16.395Z,37.72
2023-03-29T16:14:43.808Z,37.15
2023-03-29T16:17:11.684Z,37.25
2023-03-29T16:19:39.234Z,37.61
2023-03-29T16:22:07.665Z,38.68
2023-03-29T16:24:36.259Z,39.56
2023-03-29T16:27:04.145Z,40.34
2023-03-29T16:29:32.005Z,40.39
2023-03-29T16:32:00.231Z,40.66
2023-03-29T16:34:27.873Z,40.88
2023-03-29T16:36:55.350Z,41.16
2023-03-29T16:39:22.796Z,41.02
2023-03-29T16:41:50.553Z,40.63
2023-03-29T16:44:23.570Z,41.07
2023-03-29T16:46:54.451Z,41.45
2023-03-29T16:49:22.508Z,40.98
2023-03-29T16:51:49.909Z,41.16
2023-03-29T16:54:18.993Z,40.71
2023-03-29T16:56:47.238Z,40.92
2023-03-29T16:59:15.409Z,40.61
2023-03-29T17:01:43.222Z,40.26
2023-03-29T17:04:11.644Z,40.49
2023-03-29T17:06:39.228Z,40.67
2023-03-29T17:09:07.427Z,40.93
2023-03-29T17:11:35.026Z,41.49
2023-03-29T17:14:02.956Z,40.56
2023-03-29T17:16:30.549Z,40.36
2023-03-29T17:19:01.456Z,40.57
2023-03-29T17:21:29.943Z,41.06
2023-03-29T17:23:57.556Z,40.90
2023-03-29T17:26:25.052Z,40.84
2023-03-29T17:28:52.651Z,41.27
2023-03-29T17:31:20.130Z,40.79
2023-03-29T17:33:47.741Z,41.02
2023-03-29T17:36:15.944Z,40.81
2023-03-29T17:38:43.406Z,40.75
2023-03-29T17:41:11.209Z,41.07
2023-03-29T17:43:38.627Z,41.21
2023-03-29T17:46:06.612Z,41.34
2023-03-29T17:48:34.686Z,41.94
2023-03-29T17:51:02.272Z,42.60
2023-03-29T17:53:29.976Z,44.30
2023-03-29T17:55:57.405Z,45.53
2023-03-29T17:58:24.901Z,46.75
2023-03-29T18:00:52.363Z,47.33
2023-03-29T18:03:20.094Z,48.92
2023-03-29T18:05:48.066Z,47.91
2023-03-29T18:08:16.902Z,48.68
2023-03-29T18:10:44.378Z,48.82
2023-03-29T18:13:14.027Z,49.48
2023-03-29T18:15:44.125Z,48.70
2023-03-29T18:18:11.705Z,49.06
2023-03-29T18:20:39.136Z,49.75
2023-03-29T18:23:06.629Z,49.76
2023-03-29T18:25:34.170Z,50.39
2023-03-29T18:28:01.552Z,50.38
2023-03-29T18:30:28.984Z,50.44
2023-03-29T18:32:56.542Z,51.49
2023-03-29T18:35:24.050Z,51.07
2023-03-29T18:37:52.299Z,51.64
2023-03-29T18:40:24.757Z,51.85
2023-03-29T18:42:52.828Z,51.73
2023-03-29T18:45:21.454Z,52.31
2023-03-29T18:47:50.960Z,51.95
2023-03-29T18:50:18.888Z,52.67
2023-03-29T18:52:46.281Z,52.88
2023-03-29T18:55:13.668Z,53.70
2023-03-29T18:57:41.529Z,54.83
2023-03-29T19:00:13.342Z,55.00
2023-03-29T19:02:42.025Z,55.58
2023-03-29T19:05:10.901Z,56.70
2023-03-29T19:07:38.856Z,56.44
2023-03-29T19:10:08.464Z,56.33
2023-03-29T19:12:36.398Z,56.36
2023-03-29T19:15:04.458Z,56.34
2023-03-29T19:17:32.215Z,56.61
2023-03-29T19:19:59.731Z,56.14
2023-03-29T19:22:27.228Z,55.92
2023-03-29T19:24:54.609Z,56.93
2023-03-29T19:27:22.124Z,57.08
2023-03-29T19:29:49.745Z,56.86
2023-03-29T19:32:17.165Z,57.04
2023-03-29T19:34:44.559Z,57.13
2023-03-29T19:37:12.166Z,57.00
2023-03-29T19:39:41.128Z,57.91
2023-03-29T19:42:08.591Z,57.92
2023-03-29T19:44:38.330Z,57.92
2023-03-29T19:47:06.668Z,57.90
2023-03-29T19:49:36.704Z,58.52
2023-03-29T19:52:05.078Z,58.76
2023-03-29T19:54:32.927Z,57.82
2023-03-29T19:57:00.392Z,58.28
2023-03-29T19:59:28.170Z,58.38
2023-03-29T20:01:57.007Z,58.46
2023-03-29T20:04:25.320Z,58.99
2023-03-29T20:06:52.742Z,58.52
2023-03-29T20:09:20.315Z,59.55
2023-03-29T20:11:47.806Z,59.02
2023-03-29T20:14:15.599Z,60.22
2023-03-29T20:16:44.178Z,60.02
2023-03-29T20:19:14.171Z,59.45
2023-03-29T20:21:41.688Z,60.56
2023-03-29T20:24:09.845Z,60.22
2023-03-29T20:26:37.413Z,61.30
2023-03-29T20:29:04.843Z,60.42
2023-03-29T20:31:32.307Z,60.86
2023-03-29T20:33:59.944Z,62.02
2023-03-29T20:36:30.876Z,62.08
2023-03-29T20:38:59.378Z,63.07
2023-03-29T20:41:27.010Z,63.36
2023-03-29T20:44:00.013Z,63.54
2023-03-29T20:46:33.558Z,64.39
2023-03-29T20:49:09.032Z,65.29
2023-03-29T20:51:38.654Z,65.53
2023-03-29T20:54:07.788Z,65.26
2023-03-29T20:56:42.371Z,65.30
2023-03-29T20:59:10.954Z,65.05
2023-03-29T21:01:42.498Z,65.76
2023-03-29T21:04:11.110Z,66.38
2023-03-29T21:06:41.495Z,66.01
2023-03-29T21:09:08.923Z,65.95
2023-03-29T21:11:36.335Z,66.32
2023-03-29T21:14:04.249Z,67.28
2023-03-29T21:16:34.040Z,67.39
2023-03-29T21:19:01.606Z,67.45
2023-03-29T21:21:30.162Z,66.55
2023-03-29T21:23:57.565Z,67.68
2023-03-29T21:26:24.939Z,68.98
2023-03-29T21:28:52.591Z,69.82
2023-03-29T21:31:20.156Z,70.01
2023-03-29T21:33:47.599Z,71.48
2023-03-29T21:36:15.185Z,72.08
2023-03-29T21:38:42.672Z,73.36
2023-03-29T21:41:12.162Z,73.78
2023-03-29T21:43:40.146Z,75.38
2023-03-29T21:46:08.573Z,76.04
2023-03-29T21:48:36.666Z,76.67
2023-03-29T21:51:06.591Z,77.36
2023-03-29T21:53:34.629Z,75.54
2023-03-29T21:56:02.675Z,75.93
2023-03-29T21:58:30.171Z,77.42
2023-03-29T22:00:57.622Z,77.17
2023-03-29T22:03:25.105Z,79.13
2023-03-29T22:06:03.069Z,78.26
2023-03-29T22:08:31.456Z,78.21
2023-03-29T22:10:58.862Z,79.03
2023-03-29T22:13:28.987Z,77.74
2023-03-29T22:16:03.866Z,77.87
2023-03-29T22:18:44.118Z,76.41
2023-03-29T22:21:22.797Z,75.53
2023-03-29T22:23:56.084Z,75.42
2023-03-29T22:26:29.978Z,74.16
2023-03-29T22:28:59.887Z,73.78
2023-03-29T22:31:29.521Z,74.03
2023-03-29T22:33:58.500Z,73.69
2023-03-29T22:36:31.155Z,74.31
2023-03-29T22:38:59.136Z,74.95
2023-03-29T22:41:28.303Z,76.71
2023-03-29T22:43:59.524Z,78.69
2023-03-29T22:46:27.365Z,78.36
2023-03-29T22:48:55.041Z,78.94
2023-03-29T22:51:22.505Z,78.20
2023-03-29T22:53:50.046Z,78.79
2023-03-29T22:56:18.459Z,78.80
2023-03-29T22:58:46.987Z,78.47
2023-03-29T23:01:14.491Z,78.66
2023-03-29T23:03:42.032Z,78.99
2023-03-29T23:06:09.512Z,78.67
2023-03-29T23:08:37.230Z,78.52
2023-03-29T23:11:05.545Z,78.42
2023-03-29T23:13:33.721Z,77.75
2023-03-29T23:16:02.530Z,77.36
2023-03-29T23:18:35.007Z,76.35
2023-03-29T23:21:05.276Z,77.70
2023-03-29T23:23:33.703Z,75.95
2023-03-29T23:26:02.566Z,77.06
2023-03-29T23:28:30.789Z,76.17
2023-03-29T23:31:11.613Z,76.12
2023-03-29T23:33:43.199Z,76.29
2023-03-29T23:36:16.855Z,76.17
2023-03-29T23:38:46.988Z,74.93
2023-03-29T23:41:17.798Z,74.74
2023-03-29T23:43:47.281Z,71.23
2023-03-29T23:46:19.042Z,70.72
2023-03-29T23:48:50.871Z,68.55
2023-03-29T23:51:23.366Z,67.14
2023-03-29T23:53:51.484Z,66.73
